createdAt,value
2022-12-17T00:02:41.843Z,100775.91
2022-12-17T00:05:27.088Z,100780.28
2022-12-17T00:08:16.725Z,100784.69
2022-12-17T00:11:01.688Z,100775.16
2022-12-17T00:13:46.851Z,100776.00
2022-12-17T00:16:31.724Z,100781.28
2022-12-17T00:19:16.793Z,100782.09
2022-12-17T00:22:01.568Z,100785.59
2022-12-17T00:24:47.634Z,100782.22
2022-12-17T00:27:32.330Z,100788.22
2022-12-17T00:30:17.036Z,100792.66
2022-12-17T00:36:10.955Z,100796.97
2022-12-17T00:38:55.590Z,100799.63
2022-12-17T00:41:43.073Z,100797.84
2022-12-17T00:44:27.796Z,100805.75
2022-12-17T00:50:25.418Z,100815.38
2022-12-17T00:53:10.750Z,100817.13
2022-12-17T00:55:55.500Z,100823.25
2022-12-17T00:58:42.870Z,100825.88
2022-12-17T01:01:29.354Z,100825.88
2022-12-17T01:04:14.650Z,100820.63
2022-12-17T01:10:08.859Z,100837.13
2022-12-17T01:12:53.442Z,100838.00
2022-12-17T01:15:42.579Z,100841.59
2022-12-17T01:18:31.442Z,100840.69
2022-12-17T01:21:16.130Z,100840.69
2022-12-17T01:24:01.480Z,100845.88
2022-12-17T01:26:46.307Z,100850.28
2022-12-17T01:29:34.210Z,100856.44
2022-12-17T01:32:20.130Z,100866.00
2022-12-17T01:35:08.267Z,100859.81
2022-12-17T01:37:52.881Z,100863.38
2022-12-17T01:40:37.822Z,100872.97
2022-12-17T01:43:36.797Z,100866.88
2022-12-17T01:46:27.876Z,100861.69
2022-12-17T01:49:14.015Z,100864.31
2022-12-17T01:51:58.787Z,100864.34
2022-12-17T01:54:43.630Z,100866.06
2022-12-17T01:57:30.874Z,100863.41
2022-12-17T02:00:18.593Z,100873.09
2022-12-17T02:03:03.874Z,100878.28
2022-12-17T02:06:06.819Z,100879.16
2022-12-17T02:08:59.523Z,100878.31
2022-12-17T02:11:52.270Z,100883.59
2022-12-17T02:14:40.615Z,100874.81
2022-12-17T02:17:29.884Z,100879.19
2022-12-17T02:20:28.071Z,100881.00
2022-12-17T02:23:18.636Z,100887.97
2022-12-17T02:26:06.818Z,100889.69
2022-12-17T02:28:54.754Z,100884.38
2022-12-17T02:34:56.081Z,100881.84
2022-12-17T02:37:40.971Z,100882.69
2022-12-17T02:40:26.313Z,100881.78
2022-12-17T02:43:10.994Z,100885.22
2022-12-17T02:45:58.148Z,100889.63
2022-12-17T02:48:43.107Z,100896.69
2022-12-17T02:51:30.299Z,100901.03
2022-12-17T02:54:14.951Z,100898.44
2022-12-17T03:03:18.957Z,100901.00
2022-12-17T03:06:04.211Z,100901.03
2022-12-17T03:08:49.294Z,100906.22
2022-12-17T03:11:33.969Z,100905.31
2022-12-17T03:14:18.823Z,100900.06
2022-12-17T03:17:03.595Z,100909.69
2022-12-17T03:19:49.964Z,100906.22
2022-12-17T03:22:34.574Z,100915.81
2022-12-17T03:25:19.548Z,100921.09
2022-12-17T03:28:04.169Z,100922.78
2022-12-17T03:30:53.115Z,100915.69
2022-12-17T03:33:38.360Z,100922.69
2022-12-17T03:36:29.110Z,100922.72
2022-12-17T03:39:13.829Z,100920.94
2022-12-17T03:48:32.743Z,100931.53
2022-12-17T03:51:19.682Z,100928.03
2022-12-17T03:54:06.155Z,100931.44
2022-12-17T03:56:50.928Z,100932.34
2022-12-17T03:59:35.650Z,100935.88
2022-12-17T04:02:20.531Z,100937.56
2022-12-17T04:05:05.625Z,100948.97
2022-12-17T04:07:50.391Z,100937.59
2022-12-17T04:10:36.827Z,100948.09
2022-12-17T04:13:21.611Z,100955.16
2022-12-17T04:16:06.524Z,100950.75
2022-12-17T04:18:51.330Z,100952.47
2022-12-17T04:21:36.129Z,100961.25
2022-12-17T04:24:20.920Z,100966.53
2022-12-17T04:27:06.983Z,100977.91
2022-12-17T04:29:51.122Z,100973.56
2022-12-17T04:32:35.970Z,100979.63
2022-12-17T04:38:31.335Z,100977.81
2022-12-17T04:41:16.135Z,100982.97
2022-12-17T04:44:03.352Z,100984.88
2022-12-17T04:46:48.413Z,100988.34
2022-12-17T04:49:33.639Z,100981.34
2022-12-17T04:52:18.437Z,100989.16
2022-12-17T04:55:03.233Z,100991.88
2022-12-17T04:57:48.025Z,100986.63
2022-12-17T05:00:35.336Z,100988.34
2022-12-17T05:03:23.621Z,100992.69
2022-12-17T05:09:14.040Z,101006.72
2022-12-17T05:11:58.626Z,101002.38
2022-12-17T05:14:43.390Z,101004.03
2022-12-17T05:17:29.546Z,101005.78
2022-12-17T05:20:14.323Z,101009.31
2022-12-17T05:22:59.052Z,101014.53
2022-12-17T05:25:43.803Z,101018.00
2022-12-17T05:28:28.508Z,101024.19
2022-12-17T05:31:13.812Z,101026.81
2022-12-17T05:34:00.346Z,101037.19
2022-12-17T05:39:54.781Z,101047.81
2022-12-17T05:42:39.414Z,101045.06
2022-12-17T05:45:36.202Z,101048.69
2022-12-17T05:48:21.359Z,101053.97
2022-12-17T05:51:09.406Z,101046.06
2022-12-17T05:53:55.003Z,101052.22
2022-12-17T05:56:39.754Z,101059.22
2022-12-17T05:59:24.570Z,101057.47
2022-12-17T06:02:09.234Z,101066.19
2022-12-17T06:05:01.841Z,101073.22
2022-12-17T06:17:16.067Z,101063.47
2022-12-17T06:20:00.734Z,101070.47
2022-12-17T06:25:55.836Z,101073.16
2022-12-17T06:28:39.791Z,101082.78
2022-12-17T06:31:24.598Z,101081.84
2022-12-17T06:34:09.467Z,101086.25
2022-12-17T06:40:03.571Z,101086.22
2022-12-17T06:42:49.504Z,101089.84
2022-12-17T06:45:38.019Z,101095.94
2022-12-17T06:48:23.879Z,101098.53
2022-12-17T06:51:12.996Z,101109.09
2022-12-17T06:54:00.484Z,101110.78
2022-12-17T06:59:56.335Z,101130.03
2022-12-17T07:02:41.252Z,101126.50
2022-12-17T07:08:35.757Z,101117.75
2022-12-17T07:11:23.192Z,101124.72
2022-12-17T07:14:08.266Z,101139.59
2022-12-17T07:20:03.691Z,101148.41
2022-12-17T07:22:48.421Z,101147.47
2022-12-17T07:28:42.627Z,101161.47
2022-12-17T07:31:27.568Z,101157.03
2022-12-17T07:34:12.857Z,101163.28
2022-12-17T07:36:57.554Z,101162.34
2022-12-17T07:39:53.884Z,101165.00
2022-12-17T07:42:38.580Z,101168.50
2022-12-17T07:45:23.918Z,101163.19
2022-12-17T07:48:17.826Z,101168.47
2022-12-17T07:51:07.774Z,101167.56
2022-12-17T07:53:52.464Z,101172.81
2022-12-17T07:56:37.322Z,101175.38
2022-12-17T07:59:22.705Z,101184.19
2022-12-17T08:05:16.821Z,101194.69
2022-12-17T08:08:02.934Z,101187.66
2022-12-17T08:10:47.798Z,101197.25
2022-12-17T08:13:32.733Z,101197.34
2022-12-17T08:19:26.702Z,101217.44
2022-12-17T08:22:11.479Z,101222.72
2022-12-17T08:25:00.124Z,101221.78
2022-12-17T08:27:44.774Z,101223.50
2022-12-17T08:30:31.095Z,101237.63
2022-12-17T08:33:19.849Z,101234.00
2022-12-17T08:36:09.074Z,101237.53
2022-12-17T08:38:53.858Z,101238.41
2022-12-17T08:41:40.414Z,101240.09
2022-12-17T08:44:25.184Z,101241.13
2022-12-17T08:56:46.137Z,101252.44
2022-12-17T08:59:32.089Z,101248.06
2022-12-17T09:02:17.003Z,101255.88
2022-12-17T09:05:01.754Z,101257.63
2022-12-17T09:14:04.780Z,101273.44
2022-12-17T09:16:50.974Z,101271.72
2022-12-17T09:19:35.915Z,101273.50
2022-12-17T09:22:20.520Z,101274.34
2022-12-17T09:25:08.950Z,101275.22
2022-12-17T09:27:53.616Z,101268.19
2022-12-17T09:36:57.667Z,101281.34
2022-12-17T09:39:46.104Z,101276.88
2022-12-17T09:42:35.913Z,101283.97
2022-12-17T09:48:37.319Z,101289.09
2022-12-17T09:51:23.957Z,101278.50
2022-12-17T09:54:10.093Z,101283.88
2022-12-17T09:56:55.713Z,101286.47
2022-12-17T09:59:44.253Z,101297.06
2022-12-17T10:02:31.617Z,101285.59
2022-12-17T10:05:17.201Z,101289.03
2022-12-17T10:08:04.199Z,101294.28
2022-12-17T10:10:51.018Z,101297.78
2022-12-17T10:13:37.348Z,101300.34
2022-12-17T10:16:37.937Z,101299.47
2022-12-17T10:19:23.820Z,101311.78
2022-12-17T10:22:08.804Z,101313.69
2022-12-17T10:25:03.452Z,101312.78
2022-12-17T10:27:51.871Z,101318.97
2022-12-17T10:30:36.749Z,101314.59
2022-12-17T10:36:39.363Z,101318.09
2022-12-17T10:39:24.631Z,101321.44
2022-12-17T10:48:38.771Z,101325.84
2022-12-17T10:51:24.659Z,101324.94
2022-12-17T10:54:10.279Z,101328.50
2022-12-17T10:56:55.903Z,101332.81
2022-12-17T10:59:58.455Z,101330.16
2022-12-17T11:05:59.618Z,101328.31
2022-12-17T11:08:41.591Z,101339.72
2022-12-17T11:11:29.344Z,101330.88
2022-12-17T11:14:15.331Z,101339.69
2022-12-17T11:17:07.073Z,101336.09
2022-12-17T11:19:55.086Z,101344.00
2022-12-17T11:22:49.837Z,101343.06
2022-12-17T11:25:57.562Z,101343.22
2022-12-17T11:29:03.602Z,101346.78
2022-12-17T11:35:26.140Z,101345.13
2022-12-17T11:38:18.024Z,101345.88
2022-12-17T11:44:23.831Z,101351.81
2022-12-17T11:47:11.055Z,101343.03
2022-12-17T11:50:02.901Z,101342.91
2022-12-17T11:53:07.143Z,101347.22
2022-12-17T11:55:55.231Z,101346.41
2022-12-17T11:58:42.989Z,101357.09
2022-12-17T12:04:51.217Z,101355.22
2022-12-17T12:07:39.572Z,101363.22
2022-12-17T12:10:30.365Z,101363.94
2022-12-17T12:13:22.308Z,101369.31
2022-12-17T12:16:13.914Z,101358.84
2022-12-17T12:19:02.688Z,101365.78
2022-12-17T12:21:55.896Z,101369.31
2022-12-17T12:24:50.287Z,101359.69
2022-12-17T12:27:55.396Z,101371.13
2022-12-17T12:30:40.993Z,101370.09
2022-12-17T12:33:36.030Z,101377.28
2022-12-17T12:36:22.768Z,101372.00
2022-12-17T12:39:12.000Z,101375.34
2022-12-17T12:42:01.451Z,101378.03
2022-12-17T12:48:04.559Z,101381.31
2022-12-17T12:51:04.851Z,101385.69
2022-12-17T12:53:49.582Z,101390.22
2022-12-17T12:56:47.868Z,101379.72
2022-12-17T12:59:39.580Z,101386.69
2022-12-17T13:02:33.067Z,101396.41
2022-12-17T13:05:19.151Z,101392.22
2022-12-17T13:07:47.828Z,101393.88
2022-12-17T13:10:25.353Z,101403.69
2022-12-17T13:12:52.815Z,101401.03
2022-12-17T13:15:23.162Z,101411.59
2022-12-17T13:18:10.339Z,101408.00
2022-12-17T13:20:39.013Z,101408.09
2022-12-17T13:26:23.624Z,101410.81
2022-12-17T13:29:11.294Z,101415.19
2022-12-17T13:31:47.903Z,101414.38
2022-12-17T13:34:19.927Z,101419.59
2022-12-17T13:36:52.184Z,101420.47
2022-12-17T13:39:33.640Z,101420.47
2022-12-17T13:42:01.040Z,101424.84
2022-12-17T13:44:31.419Z,101430.94
2022-12-17T13:47:02.859Z,101436.22
2022-12-17T13:49:31.589Z,101439.78
2022-12-17T13:55:06.458Z,101440.75
2022-12-17T13:57:33.807Z,101445.97
2022-12-17T14:00:02.423Z,101448.69
2022-12-17T14:02:31.305Z,101456.59
2022-12-17T14:05:02.830Z,101453.16
2022-12-17T14:07:39.131Z,101457.53
2022-12-17T14:10:14.818Z,101463.69
2022-12-17T14:12:41.304Z,101468.03
2022-12-17T14:15:17.557Z,101466.28
2022-12-17T14:17:46.211Z,101480.41
2022-12-17T14:20:14.700Z,101486.53
2022-12-17T14:22:51.083Z,101481.25
2022-12-17T14:25:20.198Z,101483.91
2022-12-17T14:27:52.869Z,101494.41
2022-12-17T14:30:21.616Z,101495.25
2022-12-17T14:32:49.602Z,101507.63
2022-12-17T14:35:24.148Z,101508.50
2022-12-17T14:37:52.867Z,101504.03
2022-12-17T14:40:20.698Z,101510.25
2022-12-17T14:42:48.018Z,101510.25
2022-12-17T14:45:23.723Z,101508.53
2022-12-17T14:47:54.901Z,101511.13
2022-12-17T14:50:27.459Z,101512.94
2022-12-17T14:52:57.722Z,101521.66
2022-12-17T14:55:27.010Z,101522.53
2022-12-17T14:57:55.158Z,101522.53
2022-12-17T15:00:22.636Z,101526.94
2022-12-17T15:02:55.958Z,101534.84
2022-12-17T15:05:23.519Z,101533.97
2022-12-17T15:07:51.700Z,101536.66
2022-12-17T15:10:21.744Z,101534.84
2022-12-17T15:12:51.395Z,101539.19
2022-12-17T15:15:20.800Z,101540.09
2022-12-17T15:17:48.176Z,101540.06
2022-12-17T15:20:17.224Z,101551.53
2022-12-17T15:25:43.642Z,101545.38
2022-12-17T15:28:13.053Z,101543.66
2022-12-17T15:33:32.785Z,101559.44
2022-12-17T15:36:00.108Z,101561.19
2022-12-17T15:38:27.567Z,101559.44
2022-12-17T15:40:56.337Z,101559.47
2022-12-17T15:43:23.975Z,101557.69
2022-12-17T15:45:53.743Z,101557.72
2022-12-17T15:48:23.169Z,101556.00
2022-12-17T15:50:50.642Z,101555.94
2022-12-17T15:53:17.982Z,101556.81
2022-12-17T15:58:38.375Z,101558.53
2022-12-17T16:01:06.583Z,101561.03
2022-12-17T16:03:33.968Z,101571.53
2022-12-17T16:06:01.894Z,101567.28
2022-12-17T16:08:29.234Z,101578.56
2022-12-17T16:10:56.671Z,101575.94
2022-12-17T16:16:17.223Z,101585.59
2022-12-17T16:18:44.664Z,101588.94
2022-12-17T16:21:12.087Z,101586.31
2022-12-17T16:23:39.756Z,101587.19
2022-12-17T16:26:08.118Z,101586.28
2022-12-17T16:28:36.561Z,101590.91
2022-12-17T16:31:05.044Z,101596.22
2022-12-17T16:36:25.787Z,101594.56
2022-12-17T16:38:54.343Z,101596.34
2022-12-17T16:41:22.636Z,101602.50
2022-12-17T16:43:49.949Z,101598.97
2022-12-17T16:46:24.679Z,101603.28
2022-12-17T16:48:53.637Z,101607.66
2022-12-17T16:51:28.426Z,101617.41
2022-12-17T16:53:56.737Z,101620.94
2022-12-17T16:56:25.319Z,101620.97
2022-12-17T16:58:53.692Z,101624.44
2022-12-17T17:01:21.659Z,101619.16
2022-12-17T17:03:50.243Z,101621.81
2022-12-17T17:06:19.493Z,101626.16
2022-12-17T17:08:46.879Z,101632.31
2022-12-17T17:11:18.852Z,101632.34
2022-12-17T17:13:46.395Z,101628.78
2022-12-17T17:16:13.818Z,101631.47
2022-12-17T17:18:41.733Z,101639.38
2022-12-17T17:21:25.874Z,101636.75
2022-12-17T17:23:57.261Z,101641.16
2022-12-17T17:26:25.001Z,101649.91
2022-12-17T17:28:52.808Z,101656.06
2022-12-17T17:31:21.642Z,101649.91
2022-12-17T17:33:49.959Z,101654.31
2022-12-17T17:36:18.378Z,101657.81
2022-12-17T17:38:48.014Z,101663.06
2022-12-17T17:41:16.041Z,101656.94
2022-12-17T17:43:43.550Z,101667.47
2022-12-17T17:49:03.297Z,101662.19
2022-12-17T17:54:25.044Z,101670.09
2022-12-17T17:56:52.481Z,101665.72
2022-12-17T17:59:20.180Z,101666.59
2022-12-17T18:01:49.363Z,101659.59
2022-12-17T18:04:19.976Z,101663.09
2022-12-17T18:07:09.139Z,101658.69
2022-12-17T18:09:36.704Z,101664.81
2022-12-17T18:12:25.042Z,101668.34
2022-12-17T18:15:18.783Z,101665.72
2022-12-17T18:17:39.210Z,101670.09
2022-12-17T18:20:07.306Z,101678.00
2022-12-17T18:22:34.702Z,101685.00
2022-12-17T18:25:03.354Z,101695.53
2022-12-17T18:27:30.707Z,101685.91
2022-12-17T18:29:58.042Z,101685.88
2022-12-17T18:32:25.662Z,101687.63
2022-12-17T18:34:53.123Z,101699.75
2022-12-17T18:37:20.579Z,101706.63
2022-12-17T18:39:48.000Z,101705.69
2022-12-17T18:42:34.241Z,101712.50
2022-12-17T18:45:01.694Z,101715.13
2022-12-17T18:47:29.039Z,101709.97
2022-12-17T18:49:59.766Z,101714.19
2022-12-17T18:52:27.092Z,101727.41
2022-12-17T18:54:54.412Z,101730.13
2022-12-17T18:57:23.082Z,101726.28
2022-12-17T18:59:50.425Z,101726.31
2022-12-17T19:02:19.903Z,101733.94
2022-12-17T19:04:47.324Z,101740.00
2022-12-17T19:07:14.690Z,101740.84
2022-12-17T19:09:42.309Z,101734.72
2022-12-17T19:12:10.358Z,101740.81
2022-12-17T19:14:40.733Z,101740.84
2022-12-17T19:17:08.055Z,101744.06
2022-12-17T19:19:35.375Z,101741.59
2022-12-17T19:22:03.417Z,101748.88
2022-12-17T19:24:30.813Z,101753.03
2022-12-17T19:26:58.492Z,101752.72
2022-12-17T19:29:25.820Z,101761.16
2022-12-17T19:31:54.585Z,101753.06
2022-12-17T19:34:22.071Z,101749.97
2022-12-17T19:36:49.405Z,101766.56
2022-12-17T19:39:18.147Z,101764.78
2022-12-17T19:41:45.965Z,101767.94
2022-12-17T19:44:14.320Z,101771.59
2022-12-17T19:46:41.980Z,101771.63
2022-12-17T19:49:11.744Z,101775.78
2022-12-17T19:51:40.566Z,101774.94
2022-12-17T19:54:09.254Z,101767.91
2022-12-17T19:56:37.321Z,101775.34
2022-12-17T19:59:07.067Z,101777.91
2022-12-17T20:01:35.392Z,101776.94
2022-12-17T20:04:03.301Z,101780.38
2022-12-17T20:06:32.808Z,101782.28
2022-12-17T20:09:00.801Z,101785.69
2022-12-17T20:11:34.571Z,101790.72
2022-12-17T20:14:03.574Z,101789.88
2022-12-17T20:16:31.932Z,101790.88
2022-12-17T20:18:59.466Z,101794.31
2022-12-17T20:21:27.056Z,101788.44
2022-12-17T20:23:56.303Z,101784.34
2022-12-17T20:26:24.233Z,101793.31
2022-12-17T20:28:51.812Z,101802.06
2022-12-17T20:31:19.605Z,101805.53
2022-12-17T20:33:47.171Z,101809.38
2022-12-17T20:36:15.955Z,101810.69
2022-12-17T20:38:43.619Z,101820.28
2022-12-17T20:41:13.125Z,101825.81
2022-12-17T20:43:40.749Z,101817.00
2022-12-17T20:46:09.561Z,101821.53
2022-12-17T20:48:37.381Z,101826.38
2022-12-17T20:51:06.190Z,101834.06
2022-12-17T20:53:34.409Z,101826.13
2022-12-17T20:56:02.256Z,101830.59
2022-12-17T20:58:31.277Z,101833.13
2022-12-17T21:01:05.555Z,101838.22
2022-12-17T21:03:33.453Z,101840.72
2022-12-17T21:06:07.955Z,101838.31
2022-12-17T21:08:35.680Z,101838.19
2022-12-17T21:11:03.223Z,101838.97
2022-12-17T21:13:31.947Z,101837.97
2022-12-17T21:16:00.166Z,101847.88
2022-12-17T21:18:27.835Z,101848.75
2022-12-17T21:20:56.121Z,101850.63
2022-12-17T21:23:23.434Z,101849.47
2022-12-17T21:25:57.846Z,101857.69
2022-12-17T21:28:25.699Z,101860.91
2022-12-17T21:30:54.449Z,101863.34
2022-12-17T21:33:21.974Z,101857.19
2022-12-17T21:35:49.466Z,101864.69
2022-12-17T21:38:16.851Z,101866.19
2022-12-17T21:40:44.174Z,101864.53
2022-12-17T21:43:11.564Z,101876.50
2022-12-17T21:45:39.912Z,101871.91
2022-12-17T21:48:13.006Z,101871.44
2022-12-17T21:50:43.511Z,101878.56
2022-12-17T21:53:11.876Z,101881.00
2022-12-17T21:55:39.381Z,101877.84
2022-12-17T21:58:07.917Z,101881.16
2022-12-17T22:00:35.267Z,101881.88
2022-12-17T22:03:03.450Z,101883.63
2022-12-17T22:05:32.162Z,101881.03
2022-12-17T22:07:59.909Z,101883.38
2022-12-17T22:10:36.913Z,101886.75
2022-12-17T22:13:32.290Z,101878.88
2022-12-17T22:15:59.776Z,101877.38
2022-12-17T22:18:27.149Z,101889.22
2022-12-17T22:20:59.716Z,101890.28
2022-12-17T22:23:27.041Z,101893.56
2022-12-17T22:25:54.679Z,101898.06
2022-12-17T22:28:22.005Z,101903.63
2022-12-17T22:31:08.843Z,101903.84
2022-12-17T22:33:50.804Z,101915.84
2022-12-17T22:39:34.894Z,101909.34
2022-12-17T22:43:13.481Z,101912.09
2022-12-17T22:44:45.327Z,101915.50
2022-12-17T22:45:10.607Z,101915.44
2022-12-17T22:47:38.967Z,101916.06
2022-12-17T22:50:07.026Z,101923.78
2022-12-17T22:52:36.312Z,101919.38
2022-12-17T22:55:04.532Z,101930.41
2022-12-17T22:57:36.775Z,101926.94
2022-12-17T23:00:07.418Z,101920.78
2022-12-17T23:02:34.786Z,101930.88
2022-12-17T23:05:02.204Z,101921.47
2022-12-17T23:07:31.920Z,101929.72
2022-12-17T23:10:00.862Z,101934.94
2022-12-17T23:12:45.868Z,101930.41
2022-12-17T23:15:13.341Z,101931.03
2022-12-17T23:17:40.991Z,101930.69
2022-12-17T23:20:08.866Z,101933.94
2022-12-17T23:22:36.179Z,101929.41
2022-12-17T23:25:05.165Z,101937.53
2022-12-17T23:27:32.490Z,101928.22
2022-12-17T23:29:59.829Z,101938.97
2022-12-17T23:32:27.251Z,101943.88
2022-12-17T23:34:54.561Z,101954.81
2022-12-17T23:37:21.890Z,101949.38
2022-12-17T23:39:49.220Z,101963.72
2022-12-17T23:42:17.993Z,101967.91
2022-12-17T23:44:45.302Z,101959.03
2022-12-17T23:47:12.642Z,101952.97
2022-12-17T23:49:39.956Z,101947.69
2022-12-17T23:52:07.300Z,101949.44
2022-12-17T23:54:36.824Z,101947.19
2022-12-17T23:57:04.167Z,101947.44
2022-12-17T23:59:32.858Z,101946.00
